sensor_id;sensor_type;location;lat;lon;timestamp;pressure;altitude;pressure_sealevel;temperature;humidity
47873;BME280;73966;47.438;18.912;2024-02-04T00:00:53;100307.06;;;11.05;56.75
47873;BME280;73966;47.438;18.912;2024-02-04T00:03:22;100304.28;;;11.21;56.33
47873;BME280;73966;47.438;18.912;2024-02-04T00:05:51;100295.25;;;10.96;56.96
47873;BME280;73966;47.438;18.912;2024-02-04T00:08:23;100296.94;;;11.24;56.37
47873;BME280;73966;47.438;18.912;2024-02-04T00:10:53;100300.75;;;11.20;56.31
47873;BME280;73966;47.438;18.912;2024-02-04T00:13:21;100299.97;;;11.32;56.16
47873;BME280;73966;47.438;18.912;2024-02-04T00:15:53;100297.81;;;11.25;56.51
47873;BME280;73966;47.438;18.912;2024-02-04T00:18:23;100296.00;;;11.25;56.33
47873;BME280;73966;47.438;18.912;2024-02-04T00:20:52;100297.00;;;11.10;56.91
47873;BME280;73966;47.438;18.912;2024-02-04T00:23:21;100294.81;;;11.17;56.64
47873;BME280;73966;47.438;18.912;2024-02-04T00:25:50;100292.41;;;11.26;56.45
47873;BME280;73966;47.438;18.912;2024-02-04T00:28:19;100284.22;;;11.17;56.49
47873;BME280;73966;47.438;18.912;2024-02-04T00:30:49;100290.88;;;11.10;56.72
47873;BME280;73966;47.438;18.912;2024-02-04T00:33:23;100293.06;;;11.03;56.92
47873;BME280;73966;47.438;18.912;2024-02-04T00:35:58;100291.00;;;11.21;56.65
47873;BME280;73966;47.438;18.912;2024-02-04T00:38:28;100289.94;;;11.23;56.50
47873;BME280;73966;47.438;18.912;2024-02-04T00:41:01;100286.09;;;11.15;56.77
47873;BME280;73966;47.438;18.912;2024-02-04T00:43:30;100284.75;;;10.95;57.06
47873;BME280;73966;47.438;18.912;2024-02-04T00:45:59;100288.41;;;11.06;57.02
47873;BME280;73966;47.438;18.912;2024-02-04T00:48:30;100285.13;;;11.16;56.68
47873;BME280;73966;47.438;18.912;2024-02-04T00:51:03;100291.84;;;10.94;57.34
47873;BME280;73966;47.438;18.912;2024-02-04T00:53:32;100286.19;;;10.86;57.60
47873;BME280;73966;47.438;18.912;2024-02-04T00:56:03;100292.34;;;10.72;57.82
47873;BME280;73966;47.438;18.912;2024-02-04T00:58:32;100290.00;;;11.09;57.06
47873;BME280;73966;47.438;18.912;2024-02-04T01:01:07;100284.72;;;11.09;57.07
47873;BME280;73966;47.438;18.912;2024-02-04T01:03:41;100286.09;;;10.88;57.52
47873;BME280;73966;47.438;18.912;2024-02-04T01:06:12;100295.59;;;11.04;57.16
47873;BME280;73966;47.438;18.912;2024-02-04T01:08:41;100284.91;;;11.06;57.00
47873;BME280;73966;47.438;18.912;2024-02-04T01:11:10;100286.06;;;11.02;57.29
47873;BME280;73966;47.438;18.912;2024-02-04T01:13:39;100274.78;;;11.25;56.61
47873;BME280;73966;47.438;18.912;2024-02-04T01:16:15;100283.41;;;11.02;57.23
47873;BME280;73966;47.438;18.912;2024-02-04T01:18:45;100267.66;;;11.13;56.99
47873;BME280;73966;47.438;18.912;2024-02-04T01:21:14;100268.91;;;11.20;56.80
47873;BME280;73966;47.438;18.912;2024-02-04T01:23:44;100270.19;;;11.15;56.80
47873;BME280;73966;47.438;18.912;2024-02-04T01:26:13;100267.00;;;11.10;57.22
47873;BME280;73966;47.438;18.912;2024-02-04T01:28:43;100260.75;;;11.23;56.89
47873;BME280;73966;47.438;18.912;2024-02-04T01:31:13;100252.12;;;11.07;57.47
47873;BME280;73966;47.438;18.912;2024-02-04T01:33:42;100253.44;;;10.87;58.02
47873;BME280;73966;47.438;18.912;2024-02-04T01:36:13;100269.28;;;10.60;58.84
47873;BME280;73966;47.438;18.912;2024-02-04T01:38:42;100257.22;;;10.83;58.36
47873;BME280;73966;47.438;18.912;2024-02-04T01:41:12;100258.97;;;10.70;58.79
47873;BME280;73966;47.438;18.912;2024-02-04T01:43:42;100248.47;;;10.95;58.12
47873;BME280;73966;47.438;18.912;2024-02-04T01:46:12;100256.72;;;10.91;58.37
47873;BME280;73966;47.438;18.912;2024-02-04T01:48:41;100245.16;;;10.65;59.28
47873;BME280;73966;47.438;18.912;2024-02-04T01:51:17;100242.91;;;10.58;59.67
47873;BME280;73966;47.438;18.912;2024-02-04T01:53:52;100238.16;;;10.64;59.90
47873;BME280;73966;47.438;18.912;2024-02-04T01:56:27;100233.94;;;10.47;60.65
47873;BME280;73966;47.438;18.912;2024-02-04T01:58:56;100236.09;;;10.54;60.57
47873;BME280;73966;47.438;18.912;2024-02-04T02:01:27;100238.62;;;10.56;60.68
47873;BME280;73966;47.438;18.912;2024-02-04T02:03:57;100237.44;;;10.47;61.07
47873;BME280;73966;47.438;18.912;2024-02-04T02:06:27;100233.16;;;10.45;61.37
47873;BME280;73966;47.438;18.912;2024-02-04T02:08:58;100230.25;;;10.49;61.28
47873;BME280;73966;47.438;18.912;2024-02-04T02:11:37;100232.50;;;10.41;61.77
47873;BME280;73966;47.438;18.912;2024-02-04T02:14:12;100227.44;;;10.38;61.76
47873;BME280;73966;47.438;18.912;2024-02-04T02:16:44;100225.81;;;10.50;61.76
47873;BME280;73966;47.438;18.912;2024-02-04T02:19:28;100217.63;;;10.53;61.60
47873;BME280;73966;47.438;18.912;2024-02-04T02:22:06;100220.13;;;10.42;62.29
47873;BME280;73966;47.438;18.912;2024-02-04T02:24:39;100231.50;;;10.29;62.49
47873;BME280;73966;47.438;18.912;2024-02-04T02:27:08;100219.28;;;10.13;63.12
47873;BME280;73966;47.438;18.912;2024-02-04T02:29:38;100224.84;;;10.08;63.39
47873;BME280;73966;47.438;18.912;2024-02-04T02:32:07;100222.97;;;10.10;63.50
47873;BME280;73966;47.438;18.912;2024-02-04T02:34:37;100221.28;;;10.38;62.48
47873;BME280;73966;47.438;18.912;2024-02-04T02:37:15;100235.38;;;10.38;62.46
47873;BME280;73966;47.438;18.912;2024-02-04T02:39:58;100233.37;;;10.27;62.88
47873;BME280;73966;47.438;18.912;2024-02-04T02:42:29;100236.87;;;10.14;63.34
47873;BME280;73966;47.438;18.912;2024-02-04T02:45:00;100228.84;;;10.15;63.25
47873;BME280;73966;47.438;18.912;2024-02-04T02:47:36;100229.59;;;10.31;62.88
47873;BME280;73966;47.438;18.912;2024-02-04T02:50:10;100227.06;;;10.30;63.00
47873;BME280;73966;47.438;18.912;2024-02-04T02:52:40;100236.87;;;10.28;62.95
47873;BME280;73966;47.438;18.912;2024-02-04T02:55:22;100244.09;;;10.26;62.96
47873;BME280;73966;47.438;18.912;2024-02-04T02:57:51;100243.97;;;10.42;62.35
47873;BME280;73966;47.438;18.912;2024-02-04T03:00:21;100242.47;;;10.38;62.46
47873;BME280;73966;47.438;18.912;2024-02-04T03:02:50;100229.50;;;10.19;63.07
47873;BME280;73966;47.438;18.912;2024-02-04T03:05:21;100221.94;;;9.98;63.78
47873;BME280;73966;47.438;18.912;2024-02-04T03:07:50;100216.66;;;10.27;63.13
47873;BME280;73966;47.438;18.912;2024-02-04T03:10:21;100217.75;;;10.08;63.55
47873;BME280;73966;47.438;18.912;2024-02-04T03:12:50;100210.66;;;10.09;63.61
47873;BME280;73966;47.438;18.912;2024-02-04T03:15:21;100213.91;;;10.14;63.64
47873;BME280;73966;47.438;18.912;2024-02-04T03:17:51;100224.78;;;9.95;64.28
47873;BME280;73966;47.438;18.912;2024-02-04T03:20:20;100227.50;;;9.94;64.52
47873;BME280;73966;47.438;18.912;2024-02-04T03:22:50;100222.69;;;9.86;64.79
47873;BME280;73966;47.438;18.912;2024-02-04T03:25:21;100229.22;;;9.95;64.67
47873;BME280;73966;47.438;18.912;2024-02-04T03:27:55;100233.06;;;9.89;65.00
47873;BME280;73966;47.438;18.912;2024-02-04T03:30:24;100236.69;;;10.02;64.67
47873;BME280;73966;47.438;18.912;2024-02-04T03:32:53;100237.03;;;9.68;65.83
47873;BME280;73966;47.438;18.912;2024-02-04T03:35:23;100247.63;;;9.68;65.86
47873;BME280;73966;47.438;18.912;2024-02-04T03:37:52;100229.38;;;9.77;65.38
47873;BME280;73966;47.438;18.912;2024-02-04T03:40:23;100229.28;;;9.93;64.91
47873;BME280;73966;47.438;18.912;2024-02-04T03:42:52;100235.06;;;10.00;64.69
47873;BME280;73966;47.438;18.912;2024-02-04T03:45:21;100241.31;;;9.99;64.63
47873;BME280;73966;47.438;18.912;2024-02-04T03:47:51;100265.19;;;9.69;65.46
47873;BME280;73966;47.438;18.912;2024-02-04T03:50:21;100271.25;;;9.85;65.26
47873;BME280;73966;47.438;18.912;2024-02-04T03:52:50;100277.59;;;9.97;64.68
47873;BME280;73966;47.438;18.912;2024-02-04T03:55:23;100277.03;;;9.92;65.01
47873;BME280;73966;47.438;18.912;2024-02-04T03:57:54;100269.09;;;10.20;64.00
47873;BME280;73966;47.438;18.912;2024-02-04T04:00:25;100262.22;;;10.32;63.60
47873;BME280;73966;47.438;18.912;2024-02-04T04:02:54;100269.62;;;10.27;63.73
47873;BME280;73966;47.438;18.912;2024-02-04T04:05:23;100275.19;;;10.37;63.42
47873;BME280;73966;47.438;18.912;2024-02-04T04:07:54;100283.44;;;10.46;63.25
47873;BME280;73966;47.438;18.912;2024-02-04T04:10:25;100265.19;;;10.69;62.40
47873;BME280;73966;47.438;18.912;2024-02-04T04:12:54;100279.09;;;10.45;63.02
47873;BME280;73966;47.438;18.912;2024-02-04T04:15:24;100282.03;;;10.26;63.43
47873;BME280;73966;47.438;18.912;2024-02-04T04:17:53;100274.50;;;10.62;62.38
47873;BME280;73966;47.438;18.912;2024-02-04T04:20:25;100271.75;;;10.49;62.56
47873;BME280;73966;47.438;18.912;2024-02-04T04:22:54;100272.81;;;10.46;nan
47873;BME280;73966;47.438;18.912;2024-02-04T04:25:24;100250.66;;;10.62;62.21
47873;BME280;73966;47.438;18.912;2024-02-04T04:27:54;100265.53;;;10.36;62.95
47873;BME280;73966;47.438;18.912;2024-02-04T04:30:24;100262.91;;;10.50;62.61
47873;BME280;73966;47.438;18.912;2024-02-04T04:32:54;100259.28;;;10.08;63.91
47873;BME280;73966;47.438;18.912;2024-02-04T04:35:23;100260.06;;;10.39;63.02
47873;BME280;73966;47.438;18.912;2024-02-04T04:37:58;100261.28;;;9.90;64.57
47873;BME280;73966;47.438;18.912;2024-02-04T04:40:31;100257.00;;;9.88;64.73
47873;BME280;73966;47.438;18.912;2024-02-04T04:43:00;100257.37;;;10.24;63.68
47873;BME280;73966;47.438;18.912;2024-02-04T04:45:29;100262.09;;;10.05;64.31
47873;BME280;73966;47.438;18.912;2024-02-04T04:47:59;100260.59;;;10.01;64.62
47873;BME280;73966;47.438;18.912;2024-02-04T04:50:28;100261.06;;;10.07;64.46
47873;BME280;73966;47.438;18.912;2024-02-04T04:52:57;100250.22;;;9.98;64.74
47873;BME280;73966;47.438;18.912;2024-02-04T04:55:31;100259.94;;;9.83;65.22
47873;BME280;73966;47.438;18.912;2024-02-04T04:58:09;100258.06;;;9.99;64.92
47873;BME280;73966;47.438;18.912;2024-02-04T05:00:38;100256.84;;;9.60;66.20
47873;BME280;73966;47.438;18.912;2024-02-04T05:03:08;100247.84;;;10.07;64.85
47873;BME280;73966;47.438;18.912;2024-02-04T05:05:38;100242.44;;;9.80;65.67
47873;BME280;73966;47.438;18.912;2024-02-04T05:08:07;100238.50;;;10.02;64.88
47873;BME280;73966;47.438;18.912;2024-02-04T05:10:38;100245.84;;;10.11;64.65
47873;BME280;73966;47.438;18.912;2024-02-04T05:13:07;100249.06;;;10.16;64.44
47873;BME280;73966;47.438;18.912;2024-02-04T05:15:36;100238.66;;;9.99;65.08
47873;BME280;73966;47.438;18.912;2024-02-04T05:18:06;100238.38;;;9.75;65.75
47873;BME280;73966;47.438;18.912;2024-02-04T05:20:35;100231.66;;;9.83;65.89
47873;BME280;73966;47.438;18.912;2024-02-04T05:23:08;100239.47;;;9.56;66.92
47873;BME280;73966;47.438;18.912;2024-02-04T05:25:39;100235.69;;;9.30;67.97
47873;BME280;73966;47.438;18.912;2024-02-04T05:28:08;100241.16;;;9.43;67.31
47873;BME280;73966;47.438;18.912;2024-02-04T05:30:37;100237.66;;;9.57;67.22
47873;BME280;73966;47.438;18.912;2024-02-04T05:33:07;100234.34;;;9.39;67.72
47873;BME280;73966;47.438;18.912;2024-02-04T05:35:36;100231.69;;;9.53;67.25
47873;BME280;73966;47.438;18.912;2024-02-04T05:38:06;100223.19;;;9.48;67.58
47873;BME280;73966;47.438;18.912;2024-02-04T05:40:40;100223.91;;;9.06;69.03
47873;BME280;73966;47.438;18.912;2024-02-04T05:43:09;100225.66;;;9.21;68.38
47873;BME280;73966;47.438;18.912;2024-02-04T05:45:40;100228.47;;;8.88;69.73
47873;BME280;73966;47.438;18.912;2024-02-04T05:48:10;100234.50;;;9.06;69.16
47873;BME280;73966;47.438;18.912;2024-02-04T05:50:39;100234.63;;;9.34;68.21
47873;BME280;73966;47.438;18.912;2024-02-04T05:53:10;100236.19;;;9.37;68.02
47873;BME280;73966;47.438;18.912;2024-02-04T05:55:40;100232.75;;;9.51;67.32
47873;BME280;73966;47.438;18.912;2024-02-04T05:58:10;100238.69;;;9.40;67.65
47873;BME280;73966;47.438;18.912;2024-02-04T06:00:41;100246.28;;;9.30;68.07
47873;BME280;73966;47.438;18.912;2024-02-04T06:03:11;100243.91;;;8.96;69.34
47873;BME280;73966;47.438;18.912;2024-02-04T06:05:40;100242.59;;;9.19;68.69
47873;BME280;73966;47.438;18.912;2024-02-04T06:08:10;100247.28;;;8.98;69.27
47873;BME280;73966;47.438;18.912;2024-02-04T06:10:44;100244.31;;;9.34;67.97
47873;BME280;73966;47.438;18.912;2024-02-04T06:13:14;100237.59;;;9.28;68.09
47873;BME280;73966;47.438;18.912;2024-02-04T06:15:44;100240.47;;;9.40;67.71
47873;BME280;73966;47.438;18.912;2024-02-04T06:18:19;100252.66;;;9.42;67.41
47873;BME280;73966;47.438;18.912;2024-02-04T06:20:55;100258.00;;;9.10;68.37
47873;BME280;73966;47.438;18.912;2024-02-04T06:23:24;100248.53;;;9.22;67.88
47873;BME280;73966;47.438;18.912;2024-02-04T06:25:54;100256.31;;;9.09;68.66
47873;BME280;73966;47.438;18.912;2024-02-04T06:28:28;100240.97;;;9.16;68.33
47873;BME280;73966;47.438;18.912;2024-02-04T06:30:58;100248.78;;;9.18;68.32
47873;BME280;73966;47.438;18.912;2024-02-04T06:33:27;100258.22;;;9.38;67.76
47873;BME280;73966;47.438;18.912;2024-02-04T06:36:00;100266.41;;;9.33;67.85
47873;BME280;73966;47.438;18.912;2024-02-04T06:38:29;100267.50;;;9.45;67.20
47873;BME280;73966;47.438;18.912;2024-02-04T06:41:00;100269.50;;;9.55;66.97
47873;BME280;73966;47.438;18.912;2024-02-04T06:43:36;100279.62;;;9.33;67.72
47873;BME280;73966;47.438;18.912;2024-02-04T06:46:06;100288.59;;;9.60;66.73
47873;BME280;73966;47.438;18.912;2024-02-04T06:48:35;100291.66;;;9.69;66.39
47873;BME280;73966;47.438;18.912;2024-02-04T06:51:05;100283.94;;;9.50;66.97
47873;BME280;73966;47.438;18.912;2024-02-04T06:53:35;100288.47;;;9.48;67.18
47873;BME280;73966;47.438;18.912;2024-02-04T06:56:06;100303.22;;;9.82;65.94
47873;BME280;73966;47.438;18.912;2024-02-04T06:58:37;100302.34;;;9.81;66.07
47873;BME280;73966;47.438;18.912;2024-02-04T07:01:07;100297.28;;;10.07;65.18
47873;BME280;73966;47.438;18.912;2024-02-04T07:03:36;100295.34;;;10.39;63.89
47873;BME280;73966;47.438;18.912;2024-02-04T07:06:06;100307.44;;;10.29;64.05
47873;BME280;73966;47.438;18.912;2024-02-04T07:08:35;100302.16;;;10.43;63.50
47873;BME280;73966;47.438;18.912;2024-02-04T07:11:09;100295.41;;;10.66;62.89
47873;BME280;73966;47.438;18.912;2024-02-04T07:13:38;100304.09;;;10.68;62.92
47873;BME280;73966;47.438;18.912;2024-02-04T07:16:07;100297.47;;;10.90;62.12
47873;BME280;73966;47.438;18.912;2024-02-04T07:18:36;100306.09;;;10.65;62.66
47873;BME280;73966;47.438;18.912;2024-02-04T07:21:06;100293.88;;;10.76;62.33
47873;BME280;73966;47.438;18.912;2024-02-04T07:23:35;100290.25;;;10.92;62.24
47873;BME280;73966;47.438;18.912;2024-02-04T07:26:04;100287.22;;;10.83;62.67
47873;BME280;73966;47.438;18.912;2024-02-04T07:28:34;100291.50;;;11.13;61.83
47873;BME280;73966;47.438;18.912;2024-02-04T07:31:04;100282.59;;;11.14;61.40
47873;BME280;73966;47.438;18.912;2024-02-04T07:33:33;100268.31;;;11.17;61.48
47873;BME280;73966;47.438;18.912;2024-02-04T07:36:03;100276.88;;;11.20;61.17
47873;BME280;73966;47.438;18.912;2024-02-04T07:38:32;100277.03;;;11.31;64.86
47873;BME280;73966;47.438;18.912;2024-02-04T07:41:06;100276.28;;;11.69;62.26
47873;BME280;73966;47.438;18.912;2024-02-04T07:43:38;100292.53;;;11.38;61.08
47873;BME280;73966;47.438;18.912;2024-02-04T07:46:07;100306.31;;;11.30;61.39
47873;BME280;73966;47.438;18.912;2024-02-04T07:48:39;100298.66;;;11.65;60.15
47873;BME280;73966;47.438;18.912;2024-02-04T07:51:08;100291.63;;;11.24;61.52
47873;BME280;73966;47.438;18.912;2024-02-04T07:53:38;100297.00;;;11.37;61.03
47873;BME280;73966;47.438;18.912;2024-02-04T07:56:07;100295.75;;;11.16;61.75
47873;BME280;73966;47.438;18.912;2024-02-04T07:58:40;100289.47;;;11.44;61.11
47873;BME280;73966;47.438;18.912;2024-02-04T08:01:09;100292.34;;;11.41;61.03
47873;BME280;73966;47.438;18.912;2024-02-04T08:03:39;100299.69;;;11.23;61.06
47873;BME280;73966;47.438;18.912;2024-02-04T08:06:08;100294.50;;;10.94;62.17
47873;BME280;73966;47.438;18.912;2024-02-04T08:08:37;100281.00;;;11.12;61.42
47873;BME280;73966;47.438;18.912;2024-02-04T08:11:07;100280.59;;;10.91;61.79
47873;BME280;73966;47.438;18.912;2024-02-04T08:13:36;100279.53;;;11.20;61.18
47873;BME280;73966;47.438;18.912;2024-02-04T08:16:06;100272.66;;;11.70;60.08
47873;BME280;73966;47.438;18.912;2024-02-04T08:18:36;100266.75;;;12.18;58.57
47873;BME280;73966;47.438;18.912;2024-02-04T08:21:05;100270.53;;;12.89;56.65
47873;BME280;73966;47.438;18.912;2024-02-04T08:23:35;100261.53;;;13.02;55.59
47873;BME280;73966;47.438;18.912;2024-02-04T08:26:04;100251.00;;;14.07;52.86
47873;BME280;73966;47.438;18.912;2024-02-04T08:28:33;100248.31;;;14.40;51.98
47873;BME280;73966;47.438;18.912;2024-02-04T08:31:02;100239.41;;;14.96;50.43
47873;BME280;73966;47.438;18.912;2024-02-04T08:33:32;100255.75;;;15.35;49.00
47873;BME280;73966;47.438;18.912;2024-02-04T08:36:02;100261.25;;;14.90;50.10
47873;BME280;73966;47.438;18.912;2024-02-04T08:38:33;100263.13;;;14.11;52.13
47873;BME280;73966;47.438;18.912;2024-02-04T08:41:02;100281.03;;;14.20;51.78
47873;BME280;73966;47.438;18.912;2024-02-04T08:43:31;100266.00;;;14.75;50.63
47873;BME280;73966;47.438;18.912;2024-02-04T08:46:00;100270.50;;;14.86;50.38
47873;BME280;73966;47.438;18.912;2024-02-04T08:48:41;100282.41;;;14.59;50.78
47873;BME280;73966;47.438;18.912;2024-02-04T08:51:11;100275.34;;;14.24;51.02
47873;BME280;73966;47.438;18.912;2024-02-04T08:53:41;100280.87;;;13.88;52.30
47873;BME280;73966;47.438;18.912;2024-02-04T08:56:10;100279.59;;;13.58;52.54
47873;BME280;73966;47.438;18.912;2024-02-04T08:58:39;100285.03;;;13.09;53.98
47873;BME280;73966;47.438;18.912;2024-02-04T09:01:09;100267.13;;;12.50;55.78
47873;BME280;73966;47.438;18.912;2024-02-04T09:03:38;100286.16;;;12.93;54.99
47873;BME280;73966;47.438;18.912;2024-02-04T09:06:09;100277.69;;;13.12;53.90
47873;BME280;73966;47.438;18.912;2024-02-04T09:08:38;100265.84;;;13.16;53.78
47873;BME280;73966;47.438;18.912;2024-02-04T09:11:07;100252.94;;;12.99;54.79
47873;BME280;73966;47.438;18.912;2024-02-04T09:13:38;100243.84;;;13.49;53.10
47873;BME280;73966;47.438;18.912;2024-02-04T09:16:08;100238.53;;;14.07;51.54
47873;BME280;73966;47.438;18.912;2024-02-04T09:18:37;100227.59;;;14.33;50.77
47873;BME280;73966;47.438;18.912;2024-02-04T09:21:08;100227.00;;;14.74;49.53
47873;BME280;73966;47.438;18.912;2024-02-04T09:23:38;100239.63;;;15.04;49.09
47873;BME280;73966;47.438;18.912;2024-02-04T09:26:07;100249.00;;;14.98;48.90
47873;BME280;73966;47.438;18.912;2024-02-04T09:28:36;100235.88;;;15.28;48.30
47873;BME280;73966;47.438;18.912;2024-02-04T09:31:07;100239.88;;;15.65;47.59
47873;BME280;73966;47.438;18.912;2024-02-04T09:33:37;100253.91;;;15.67;47.41
47873;BME280;73966;47.438;18.912;2024-02-04T09:36:10;100251.75;;;16.03;46.78
47873;BME280;73966;47.438;18.912;2024-02-04T09:38:39;100258.56;;;15.86;47.02
47873;BME280;73966;47.438;18.912;2024-02-04T09:41:12;100249.44;;;15.89;46.74
47873;BME280;73966;47.438;18.912;2024-02-04T09:43:43;100251.94;;;15.48;47.77
47873;BME280;73966;47.438;18.912;2024-02-04T09:46:13;100240.72;;;15.66;47.29
47873;BME280;73966;47.438;18.912;2024-02-04T09:48:44;100246.78;;;15.68;47.66
47873;BME280;73966;47.438;18.912;2024-02-04T09:51:16;100252.38;;;15.86;47.09
47873;BME280;73966;47.438;18.912;2024-02-04T09:53:49;100243.91;;;15.81;47.03
47873;BME280;73966;47.438;18.912;2024-02-04T09:56:22;100260.50;;;16.05;46.30
47873;BME280;73966;47.438;18.912;2024-02-04T09:58:54;100245.81;;;15.69;46.75
47873;BME280;73966;47.438;18.912;2024-02-04T10:01:24;100245.91;;;15.67;46.69
47873;BME280;73966;47.438;18.912;2024-02-04T10:03:57;100244.31;;;16.07;45.99
47873;BME280;73966;47.438;18.912;2024-02-04T10:06:27;100239.69;;;16.09;45.51
47873;BME280;73966;47.438;18.912;2024-02-04T10:08:58;100234.59;;;16.36;44.85
47873;BME280;73966;47.438;18.912;2024-02-04T10:11:28;100240.03;;;16.56;44.48
47873;BME280;73966;47.438;18.912;2024-02-04T10:13:57;100237.44;;;16.75;43.83
47873;BME280;73966;47.438;18.912;2024-02-04T10:16:28;100239.97;;;16.86;43.67
47873;BME280;73966;47.438;18.912;2024-02-04T10:19:03;100235.41;;;16.67;43.49
47873;BME280;73966;47.438;18.912;2024-02-04T10:21:34;100226.72;;;16.75;43.77
47873;BME280;73966;47.438;18.912;2024-02-04T10:24:05;100219.66;;;16.74;43.51
47873;BME280;73966;47.438;18.912;2024-02-04T10:26:35;100229.19;;;16.17;44.69
47873;BME280;73966;47.438;18.912;2024-02-04T10:29:06;100227.56;;;16.35;44.53
47873;BME280;73966;47.438;18.912;2024-02-04T10:31:35;100227.13;;;16.30;44.65
47873;BME280;73966;47.438;18.912;2024-02-04T10:34:06;100220.50;;;16.75;43.66
47873;BME280;73966;47.438;18.912;2024-02-04T10:36:36;100215.06;;;16.95;43.19
47873;BME280;73966;47.438;18.912;2024-02-04T10:39:06;100209.00;;;16.93;43.43
47873;BME280;73966;47.438;18.912;2024-02-04T10:41:38;100200.22;;;16.72;43.07
47873;BME280;73966;47.438;18.912;2024-02-04T10:44:16;100199.59;;;15.78;44.78
47873;BME280;73966;47.438;18.912;2024-02-04T10:46:46;100209.25;;;15.69;45.62
47873;BME280;73966;47.438;18.912;2024-02-04T10:49:19;100219.13;;;15.58;46.66
47873;BME280;73966;47.438;18.912;2024-02-04T10:51:50;100200.34;;;14.95;46.92
47873;BME280;73966;47.438;18.912;2024-02-04T10:54:22;100196.47;;;14.99;47.04
47873;BME280;73966;47.438;18.912;2024-02-04T10:56:56;100189.00;;;15.14;46.73
47873;BME280;73966;47.438;18.912;2024-02-04T10:59:29;100191.38;;;14.96;47.14
47873;BME280;73966;47.438;18.912;2024-02-04T11:02:00;100183.22;;;15.09;47.04
47873;BME280;73966;47.438;18.912;2024-02-04T11:04:34;100178.78;;;15.19;49.71
47873;BME280;73966;47.438;18.912;2024-02-04T11:07:05;100169.94;;;15.81;47.90
47873;BME280;73966;47.438;18.912;2024-02-04T11:09:36;100179.69;;;15.92;45.83
47873;BME280;73966;47.438;18.912;2024-02-04T11:12:10;100174.44;;;15.81;45.78
47873;BME280;73966;47.438;18.912;2024-02-04T11:14:42;100172.03;;;15.78;45.24
47873;BME280;73966;47.438;18.912;2024-02-04T11:17:32;100183.88;;;15.85;45.49
47873;BME280;73966;47.438;18.912;2024-02-04T11:20:18;100173.16;;;16.15;45.27
47873;BME280;73966;47.438;18.912;2024-02-04T11:23:05;100174.88;;;16.26;43.95
47873;BME280;73966;47.438;18.912;2024-02-04T11:25:44;100171.69;;;16.42;44.32
47873;BME280;73966;47.438;18.912;2024-02-04T11:28:15;100172.56;;;16.52;44.05
47873;BME280;73966;47.438;18.912;2024-02-04T11:30:46;100176.19;;;16.41;43.23
47873;BME280;73966;47.438;18.912;2024-02-04T11:33:18;100181.72;;;16.50;43.03
47873;BME280;73966;47.438;18.912;2024-02-04T11:35:58;100162.00;;;16.51;43.14
47873;BME280;73966;47.438;18.912;2024-02-04T11:38:36;100169.06;;;16.61;42.31
47873;BME280;73966;47.438;18.912;2024-02-04T11:41:21;100165.41;;;16.53;43.04
47873;BME280;73966;47.438;18.912;2024-02-04T11:43:52;100158.41;;;17.10;41.04
47873;BME280;73966;47.438;18.912;2024-02-04T11:46:30;100155.19;;;17.16;40.65
47873;BME280;73966;47.438;18.912;2024-02-04T11:49:02;100146.97;;;17.47;40.64
47873;BME280;73966;47.438;18.912;2024-02-04T11:51:32;100154.16;;;17.36;40.24
47873;BME280;73966;47.438;18.912;2024-02-04T11:54:02;100128.69;;;17.79;39.75
47873;BME280;73966;47.438;18.912;2024-02-04T11:56:33;100131.84;;;17.45;40.05
47873;BME280;73966;47.438;18.912;2024-02-04T11:59:04;100135.63;;;17.62;39.83
47873;BME280;73966;47.438;18.912;2024-02-04T12:01:35;100134.06;;;17.79;39.43
47873;BME280;73966;47.438;18.912;2024-02-04T12:04:12;100118.91;;;17.88;39.94
47873;BME280;73966;47.438;18.912;2024-02-04T12:06:42;100114.91;;;18.02;39.13
47873;BME280;73966;47.438;18.912;2024-02-04T12:09:16;100112.53;;;17.52;39.66
47873;BME280;73966;47.438;18.912;2024-02-04T12:11:51;100111.25;;;17.56;39.66
47873;BME280;73966;47.438;18.912;2024-02-04T12:14:21;100108.03;;;17.52;39.63
47873;BME280;73966;47.438;18.912;2024-02-04T12:16:50;100111.91;;;17.20;40.11
47873;BME280;73966;47.438;18.912;2024-02-04T12:19:20;100100.09;;;17.04;40.49
47873;BME280;73966;47.438;18.912;2024-02-04T12:21:50;100111.91;;;17.20;40.76
47873;BME280;73966;47.438;18.912;2024-02-04T12:24:21;100115.69;;;17.18;41.35
47873;BME280;73966;47.438;18.912;2024-02-04T12:26:50;100119.06;;;16.62;42.34
47873;BME280;73966;47.438;18.912;2024-02-04T12:29:20;100129.09;;;16.60;42.63
47873;BME280;73966;47.438;18.912;2024-02-04T12:31:57;100121.44;;;16.36;43.20
47873;BME280;73966;47.438;18.912;2024-02-04T12:34:30;100130.19;;;15.88;44.67
47873;BME280;73966;47.438;18.912;2024-02-04T12:37:00;100130.97;;;16.19;43.99
47873;BME280;73966;47.438;18.912;2024-02-04T12:39:31;100135.41;;;16.59;43.21
47873;BME280;73966;47.438;18.912;2024-02-04T12:42:01;100131.31;;;15.95;44.07
47873;BME280;73966;47.438;18.912;2024-02-04T12:44:31;100141.16;;;15.94;43.78
47873;BME280;73966;47.438;18.912;2024-02-04T12:47:03;100126.28;;;15.71;44.78
47873;BME280;73966;47.438;18.912;2024-02-04T12:49:33;100139.38;;;15.74;44.60
47873;BME280;73966;47.438;18.912;2024-02-04T12:52:06;100129.88;;;15.39;45.27
47873;BME280;73966;47.438;18.912;2024-02-04T12:54:44;100128.97;;;15.08;46.06
47873;BME280;73966;47.438;18.912;2024-02-04T12:57:21;100132.75;;;15.27;45.87
47873;BME280;73966;47.438;18.912;2024-02-04T12:59:52;100125.31;;;14.88;46.97
47873;BME280;73966;47.438;18.912;2024-02-04T13:02:23;100119.66;;;15.44;45.98